createdAt,value
2019-03-24T00:01:41.667Z,35.60
2019-03-24T00:04:12.530Z,38.17
2019-03-24T00:06:43.198Z,36.87
2019-03-24T00:09:14.062Z,38.20
2019-03-24T00:11:44.946Z,36.37
2019-03-24T00:14:15.784Z,34.73
2019-03-24T00:16:46.405Z,35.90
2019-03-24T00:19:17.170Z,38.23
2019-03-24T00:21:47.858Z,46.43
2019-03-24T00:24:18.604Z,50.97
2019-03-24T00:26:49.377Z,41.47
2019-03-24T00:29:20.165Z,40.80
2019-03-24T00:31:50.803Z,37.90
2019-03-24T00:34:21.570Z,42.90
2019-03-24T00:36:52.351Z,39.60
2019-03-24T00:39:23.215Z,44.33
2019-03-24T00:41:54.003Z,45.17
2019-03-24T00:44:24.682Z,43.30
2019-03-24T00:46:55.398Z,47.93
2019-03-24T00:49:26.074Z,45.33
2019-03-24T00:51:56.753Z,44.03
2019-03-24T00:54:27.426Z,42.17
2019-03-24T00:56:58.927Z,42.70
2019-03-24T00:59:29.665Z,41.80
2019-03-24T01:02:00.417Z,39.00
2019-03-24T01:04:31.220Z,45.53
2019-03-24T01:07:02.098Z,44.27
2019-03-24T01:09:32.817Z,48.97
2019-03-24T01:12:03.727Z,43.17
2019-03-24T01:14:34.379Z,44.70
2019-03-24T01:17:05.058Z,43.20
2019-03-24T01:19:35.964Z,46.73
2019-03-24T01:22:06.749Z,47.00
2019-03-24T01:24:37.420Z,47.77
2019-03-24T01:27:08.309Z,48.93
2019-03-24T01:29:39.153Z,47.10
2019-03-24T01:32:09.939Z,48.07
2019-03-24T01:34:40.676Z,45.57
2019-03-24T01:37:11.390Z,43.20
2019-03-24T01:39:42.170Z,47.30
2019-03-24T01:42:13.022Z,46.57
2019-03-24T01:44:43.719Z,50.57
2019-03-24T01:47:14.329Z,48.27
2019-03-24T01:49:45.142Z,48.57
2019-03-24T01:52:15.902Z,44.07
2019-03-24T01:54:47.050Z,49.33
2019-03-24T01:57:17.804Z,49.40
2019-03-24T01:59:49.401Z,52.70
2019-03-24T02:02:20.286Z,49.60
2019-03-24T02:04:51.076Z,49.50
2019-03-24T02:07:21.841Z,54.87
2019-03-24T02:09:52.679Z,50.27
2019-03-24T02:12:23.412Z,51.90
2019-03-24T02:14:54.131Z,55.43
2019-03-24T02:17:24.933Z,45.93
2019-03-24T02:19:55.751Z,55.03
2019-03-24T02:22:26.421Z,54.23
2019-03-24T02:24:57.053Z,56.00
2019-03-24T02:27:27.735Z,51.50
2019-03-24T02:29:58.747Z,50.67
2019-03-24T02:32:29.506Z,50.30
2019-03-24T02:35:00.112Z,48.43
2019-03-24T02:37:30.909Z,53.27
2019-03-24T02:40:03.651Z,53.83
2019-03-24T02:42:35.342Z,59.53
2019-03-24T02:45:09.405Z,58.17
2019-03-24T02:47:39.885Z,59.63
2019-03-24T02:50:10.959Z,50.37
2019-03-24T02:52:41.664Z,52.70
2019-03-24T02:55:13.602Z,52.97
2019-03-24T02:57:46.258Z,51.10
2019-03-24T03:00:18.730Z,52.07
2019-03-24T03:02:50.517Z,50.47
2019-03-24T03:05:22.870Z,53.37
2019-03-24T03:07:56.162Z,53.13
2019-03-24T03:10:27.576Z,55.83
2019-03-24T03:12:59.951Z,55.47
2019-03-24T03:15:30.681Z,50.53
2019-03-24T03:18:01.841Z,50.93
2019-03-24T03:20:33.371Z,54.27
2019-03-24T03:23:04.416Z,49.17
2019-03-24T03:25:36.379Z,53.27
2019-03-24T03:28:08.345Z,52.20
2019-03-24T03:30:40.042Z,49.13
2019-03-24T03:33:11.491Z,45.83
2019-03-24T03:35:43.206Z,47.20
2019-03-24T03:38:14.513Z,53.03
2019-03-24T03:40:45.253Z,49.40
2019-03-24T03:43:15.900Z,53.27
2019-03-24T03:45:46.707Z,52.03
2019-03-24T03:48:17.364Z,50.23
2019-03-24T03:50:47.997Z,47.90
2019-03-24T03:53:18.698Z,48.33
2019-03-24T03:55:49.359Z,47.23
2019-03-24T03:58:19.995Z,45.43
2019-03-24T04:00:50.678Z,46.83
2019-03-24T04:03:22.283Z,46.60
2019-03-24T04:05:52.993Z,46.27
2019-03-24T04:08:23.795Z,46.63
2019-03-24T04:10:54.581Z,46.00
2019-03-24T04:13:25.433Z,47.70
2019-03-24T04:15:56.186Z,49.03
2019-03-24T04:18:26.878Z,43.57
2019-03-24T04:20:57.670Z,44.10
2019-03-24T04:23:28.413Z,41.63
2019-03-24T04:25:59.104Z,45.10
2019-03-24T04:28:29.655Z,43.83
2019-03-24T04:31:00.353Z,42.73
2019-03-24T04:33:31.190Z,48.60
2019-03-24T04:36:01.903Z,45.50
2019-03-24T04:38:32.553Z,44.93
2019-03-24T04:41:03.260Z,46.43
2019-03-24T04:43:34.017Z,46.13
2019-03-24T04:46:04.797Z,44.47
2019-03-24T04:48:35.488Z,45.23
2019-03-24T04:51:06.210Z,42.17
2019-03-24T04:53:36.839Z,43.80
2019-03-24T04:56:07.573Z,41.87
2019-03-24T04:58:38.462Z,45.30
2019-03-24T05:01:09.371Z,43.70
2019-03-24T05:03:40.167Z,41.30
2019-03-24T05:06:12.402Z,44.00
2019-03-24T05:08:43.812Z,45.17
2019-03-24T05:11:14.521Z,45.40
2019-03-24T05:13:45.322Z,41.90
2019-03-24T05:16:16.097Z,43.23
2019-03-24T05:18:46.844Z,41.93
2019-03-24T05:21:17.538Z,46.93
2019-03-24T05:23:48.185Z,41.53
2019-03-24T05:26:18.824Z,44.67
2019-03-24T05:28:49.591Z,44.10
2019-03-24T05:31:20.373Z,40.73
2019-03-24T05:33:51.026Z,41.73
2019-03-24T05:36:21.802Z,39.57
2019-03-24T05:38:52.506Z,39.13
2019-03-24T05:41:23.124Z,44.90
2019-03-24T05:43:53.885Z,39.57
2019-03-24T05:46:24.582Z,38.30
2019-03-24T05:48:55.317Z,44.97
2019-03-24T05:51:26.113Z,44.20
2019-03-24T05:53:56.900Z,44.77
2019-03-24T05:56:27.620Z,47.40
2019-03-24T05:58:58.470Z,45.50
2019-03-24T06:01:29.205Z,44.83
2019-03-24T06:03:59.910Z,43.13
2019-03-24T06:06:30.634Z,41.53
2019-03-24T06:09:02.305Z,43.63
2019-03-24T06:11:33.058Z,43.73
2019-03-24T06:14:03.878Z,45.60
2019-03-24T06:16:34.557Z,40.33
2019-03-24T06:19:05.365Z,46.23
2019-03-24T06:21:41.585Z,45.63
2019-03-24T06:24:12.297Z,41.93
2019-03-24T06:26:43.135Z,43.80
2019-03-24T06:29:14.079Z,46.07
2019-03-24T06:31:44.837Z,46.77
2019-03-24T06:34:15.799Z,42.90
2019-03-24T06:36:48.484Z,43.73
2019-03-24T06:39:19.378Z,39.60
2019-03-24T06:41:50.410Z,44.43
2019-03-24T06:44:21.599Z,42.83
2019-03-24T06:46:52.434Z,43.33
2019-03-24T06:49:23.155Z,41.90
2019-03-24T06:51:53.943Z,44.20
2019-03-24T06:54:24.607Z,41.03
2019-03-24T06:56:55.235Z,41.57
2019-03-24T06:59:25.940Z,45.63
2019-03-24T07:01:57.086Z,42.07
2019-03-24T07:04:27.858Z,41.17
2019-03-24T07:06:58.563Z,43.13
2019-03-24T07:09:29.322Z,41.67
2019-03-24T07:12:01.000Z,40.40
2019-03-24T07:14:32.166Z,44.00
2019-03-24T07:17:06.023Z,42.07
2019-03-24T07:19:36.840Z,38.20
2019-03-24T07:22:07.622Z,40.40
2019-03-24T07:24:38.962Z,39.30
2019-03-24T07:27:09.635Z,44.07
2019-03-24T07:29:41.293Z,39.17
2019-03-24T07:32:12.285Z,38.33
2019-03-24T07:34:43.019Z,41.90
2019-03-24T07:37:13.725Z,45.70
2019-03-24T07:39:44.383Z,40.90
2019-03-24T07:42:15.011Z,43.03
2019-03-24T07:44:45.849Z,42.40
2019-03-24T07:47:16.793Z,39.93
2019-03-24T07:49:47.471Z,41.90
2019-03-24T07:52:18.241Z,41.23
2019-03-24T07:54:48.873Z,44.97
2019-03-24T07:57:19.822Z,41.63
2019-03-24T07:59:50.446Z,41.83
2019-03-24T08:02:21.197Z,41.07
2019-03-24T08:04:51.859Z,42.37
2019-03-24T08:07:22.679Z,43.30
2019-03-24T08:09:53.798Z,42.80
2019-03-24T08:12:24.679Z,45.07
2019-03-24T08:14:56.181Z,41.07
2019-03-24T08:17:26.965Z,40.67
2019-03-24T08:19:57.880Z,40.37
2019-03-24T08:22:28.611Z,38.70
2019-03-24T08:24:59.306Z,39.27
2019-03-24T08:27:30.405Z,39.43
2019-03-24T08:30:01.184Z,44.83
2019-03-24T08:32:31.922Z,36.10
2019-03-24T08:35:02.706Z,40.73
2019-03-24T08:37:33.401Z,40.83
2019-03-24T08:40:04.322Z,40.67
2019-03-24T08:42:35.170Z,42.37
2019-03-24T08:45:06.302Z,46.10
2019-03-24T08:47:36.914Z,41.77
2019-03-24T08:50:08.334Z,42.43
2019-03-24T08:52:39.014Z,42.70
2019-03-24T08:55:09.727Z,39.90
2019-03-24T08:57:40.422Z,43.43
2019-03-24T09:00:11.458Z,44.77
2019-03-24T09:02:42.190Z,47.37
2019-03-24T09:05:13.645Z,43.73
2019-03-24T09:07:44.432Z,46.40
2019-03-24T09:10:15.290Z,45.40
2019-03-24T09:12:45.957Z,46.50
2019-03-24T09:15:16.779Z,51.03
2019-03-24T09:17:47.711Z,50.13
2019-03-24T09:20:18.625Z,42.53
2019-03-24T09:22:49.457Z,43.90
2019-03-24T09:25:20.729Z,48.40
2019-03-24T09:27:51.487Z,44.30
2019-03-24T09:30:40.781Z,54.97
2019-03-24T09:33:11.626Z,46.97
2019-03-24T09:35:42.406Z,44.77
2019-03-24T09:38:13.242Z,47.93
2019-03-24T09:40:44.149Z,43.60
2019-03-24T09:43:14.987Z,50.00
2019-03-24T09:45:45.831Z,49.87
2019-03-24T09:48:16.593Z,47.17
2019-03-24T09:50:47.368Z,47.87
2019-03-24T09:53:18.094Z,47.93
2019-03-24T09:55:48.803Z,49.80
2019-03-24T09:58:22.714Z,54.33
2019-03-24T10:00:53.584Z,48.93
2019-03-24T10:03:24.362Z,51.73
2019-03-24T10:05:55.401Z,49.87
2019-03-24T10:08:27.230Z,53.03
2019-03-24T10:10:59.693Z,48.53
2019-03-24T10:13:33.272Z,46.77
2019-03-24T10:16:05.816Z,51.87
2019-03-24T10:18:36.778Z,50.50
2019-03-24T10:21:07.682Z,52.93
2019-03-24T10:23:38.434Z,52.97
2019-03-24T10:26:09.305Z,53.10
2019-03-24T10:28:40.038Z,48.97
2019-03-24T10:31:10.767Z,52.33
2019-03-24T10:33:41.597Z,51.47
2019-03-24T10:36:12.365Z,51.53
2019-03-24T10:38:43.097Z,52.07
2019-03-24T10:41:13.846Z,52.83
2019-03-24T10:43:44.651Z,52.20
2019-03-24T10:46:15.498Z,56.47
2019-03-24T10:48:46.269Z,50.87
2019-03-24T10:51:16.955Z,50.20
2019-03-24T10:53:49.942Z,52.27
2019-03-24T10:56:20.726Z,57.47
2019-03-24T10:58:51.521Z,45.50
2019-03-24T11:01:22.355Z,50.40
2019-03-24T11:03:53.077Z,44.47
2019-03-24T11:06:23.812Z,44.90
2019-03-24T11:08:54.589Z,39.53
2019-03-24T11:11:25.375Z,30.23
2019-03-24T11:13:56.223Z,43.33
2019-03-24T11:16:27.160Z,43.57
2019-03-24T11:18:57.865Z,37.03
2019-03-24T11:21:28.640Z,47.30
2019-03-24T11:23:59.307Z,43.63
2019-03-24T11:26:30.017Z,42.73
2019-03-24T11:29:00.877Z,42.33
2019-03-24T11:31:31.747Z,46.15
2019-03-24T11:34:02.553Z,38.02
2019-03-24T11:36:33.351Z,45.55
2019-03-24T11:39:05.247Z,36.15
2019-03-24T11:41:35.997Z,42.60
2019-03-24T11:44:06.666Z,43.73
2019-03-24T11:46:37.430Z,43.75
2019-03-24T11:49:16.786Z,43.20
2019-03-24T11:51:47.869Z,44.67
2019-03-24T11:54:18.618Z,35.80
2019-03-24T11:56:49.323Z,37.25
2019-03-24T11:59:20.136Z,35.63
2019-03-24T12:01:50.961Z,39.78
2019-03-24T12:04:21.945Z,40.55
2019-03-24T12:06:52.711Z,39.63
2019-03-24T12:09:23.406Z,37.58
2019-03-24T12:11:54.225Z,39.53
2019-03-24T12:14:24.943Z,39.20
2019-03-24T12:16:55.585Z,35.45
2019-03-24T12:19:26.239Z,38.20
2019-03-24T12:21:57.024Z,39.42
2019-03-24T12:24:28.704Z,40.73
2019-03-24T12:27:01.210Z,35.23
2019-03-24T12:29:31.945Z,30.20
2019-03-24T12:32:03.779Z,28.45
2019-03-24T12:34:35.910Z,32.05
2019-03-24T12:37:09.667Z,38.02
2019-03-24T12:39:41.425Z,38.00
2019-03-24T12:42:12.444Z,32.98
2019-03-24T12:44:43.367Z,31.40
2019-03-24T12:47:15.616Z,34.83
2019-03-24T12:49:46.909Z,38.58
2019-03-24T12:52:19.254Z,36.68
2019-03-24T12:54:51.043Z,36.08
2019-03-24T12:57:22.434Z,30.00
2019-03-24T12:59:53.270Z,31.65
2019-03-24T13:02:25.348Z,32.67
2019-03-24T13:04:56.746Z,31.65
2019-03-24T13:07:29.226Z,32.25
2019-03-24T13:10:01.182Z,30.97
2019-03-24T13:12:34.742Z,30.55
2019-03-24T13:15:06.589Z,32.17
2019-03-24T13:17:37.376Z,30.65
2019-03-24T13:20:19.541Z,33.90
2019-03-24T13:22:41.399Z,29.80
2019-03-24T13:25:14.729Z,34.08
2019-03-24T13:27:45.540Z,33.10
2019-03-24T13:30:19.476Z,33.30
2019-03-24T13:32:50.474Z,30.20
2019-03-24T13:35:21.217Z,29.92
2019-03-24T13:37:51.989Z,27.75
2019-03-24T13:40:22.660Z,29.27
2019-03-24T13:42:53.299Z,27.93
2019-03-24T13:45:25.063Z,30.12
2019-03-24T13:47:55.973Z,28.30
2019-03-24T13:50:31.389Z,27.58
2019-03-24T13:52:59.149Z,24.00
2019-03-24T13:55:29.927Z,25.90
2019-03-24T13:58:00.639Z,20.95
2019-03-24T14:00:31.435Z,28.40
2019-03-24T14:03:02.160Z,32.53
2019-03-24T14:05:32.868Z,25.12
2019-03-24T14:08:03.623Z,20.00
2019-03-24T14:10:34.386Z,22.60
2019-03-24T14:13:05.188Z,21.95
2019-03-24T14:15:37.191Z,22.50
2019-03-24T14:18:12.225Z,20.37
2019-03-24T14:20:43.949Z,23.35
2019-03-24T14:23:15.060Z,28.40
2019-03-24T14:25:46.036Z,27.98
2019-03-24T14:28:17.782Z,31.33
2019-03-24T14:30:49.890Z,33.25
2019-03-24T14:33:20.731Z,25.45
2019-03-24T14:35:51.839Z,25.05
2019-03-24T14:38:22.983Z,25.40
2019-03-24T14:40:55.692Z,26.60
2019-03-24T14:43:26.663Z,17.92
2019-03-24T14:45:57.377Z,20.00
2019-03-24T14:48:28.643Z,21.05
2019-03-24T14:50:59.886Z,22.37
2019-03-24T14:53:31.346Z,21.42
2019-03-24T14:56:02.110Z,20.55
2019-03-24T14:58:32.794Z,17.85
2019-03-24T15:01:03.529Z,19.00
2019-03-24T15:03:34.234Z,20.45
2019-03-24T15:06:05.005Z,23.22
2019-03-24T15:08:35.726Z,22.75
2019-03-24T15:11:06.560Z,23.22
2019-03-24T15:13:37.293Z,24.40
2019-03-24T15:16:08.016Z,23.30
2019-03-24T15:18:39.779Z,23.73
2019-03-24T15:21:11.549Z,19.90
2019-03-24T15:23:42.538Z,23.10
2019-03-24T15:26:14.167Z,20.02
2019-03-24T15:28:47.846Z,15.40
2019-03-24T15:31:21.385Z,13.85
2019-03-24T15:33:52.170Z,16.55
2019-03-24T15:36:22.909Z,16.40
2019-03-24T15:38:56.441Z,20.62
2019-03-24T15:41:27.294Z,19.70
2019-03-24T15:43:58.183Z,15.95
2019-03-24T15:46:29.967Z,15.18
2019-03-24T15:49:01.674Z,15.88
2019-03-24T15:51:33.055Z,14.68
2019-03-24T15:54:04.646Z,13.72
2019-03-24T15:56:35.896Z,15.05
2019-03-24T15:59:07.397Z,14.03
2019-03-24T16:01:38.611Z,15.13
2019-03-24T16:04:09.412Z,16.40
2019-03-24T16:06:40.287Z,16.05
2019-03-24T16:09:11.773Z,15.40
2019-03-24T16:11:43.041Z,17.48
2019-03-24T16:14:13.994Z,15.83
2019-03-24T16:16:45.539Z,14.83
2019-03-24T16:19:25.508Z,15.10
2019-03-24T16:21:56.326Z,15.63
2019-03-24T16:24:27.385Z,14.63
2019-03-24T16:26:58.393Z,14.90
2019-03-24T16:29:32.004Z,16.15
2019-03-24T16:32:02.758Z,14.53
2019-03-24T16:34:33.913Z,14.45
2019-03-24T16:37:05.346Z,15.10
2019-03-24T16:39:36.065Z,16.30
2019-03-24T16:42:06.824Z,16.32
2019-03-24T16:44:38.665Z,16.05
2019-03-24T16:47:09.602Z,14.23
2019-03-24T16:49:40.902Z,14.93
2019-03-24T16:52:11.969Z,14.68
2019-03-24T16:54:42.983Z,15.50
2019-03-24T16:57:14.141Z,14.15
2019-03-24T16:59:44.805Z,15.50
2019-03-24T17:02:15.679Z,16.20
2019-03-24T17:04:47.575Z,16.37
2019-03-24T17:07:18.486Z,16.93
2019-03-24T17:09:49.939Z,17.60
2019-03-24T17:12:20.669Z,15.45
2019-03-24T17:14:51.387Z,14.65
2019-03-24T17:17:25.412Z,14.78
2019-03-24T17:19:56.045Z,14.63
2019-03-24T17:22:26.685Z,15.88
2019-03-24T17:24:57.433Z,14.55
2019-03-24T17:27:28.163Z,12.90
2019-03-24T17:29:59.589Z,10.78
2019-03-24T17:32:33.289Z,11.85
2019-03-24T17:35:04.077Z,11.45
2019-03-24T17:37:34.838Z,9.78
2019-03-24T17:40:06.618Z,12.28
2019-03-24T17:42:37.403Z,13.90
2019-03-24T17:45:09.941Z,15.70
2019-03-24T17:47:40.690Z,16.07
2019-03-24T17:50:12.186Z,14.60
2019-03-24T17:52:43.082Z,15.97
2019-03-24T17:55:14.190Z,13.57
2019-03-24T17:57:45.027Z,13.50
2019-03-24T18:00:17.781Z,13.50
2019-03-24T18:02:48.419Z,18.63
2019-03-24T18:05:19.168Z,13.93
2019-03-24T18:07:49.845Z,10.30
2019-03-24T18:10:20.563Z,13.97
2019-03-24T18:12:51.424Z,15.07
2019-03-24T18:15:22.285Z,11.53
2019-03-24T18:17:52.938Z,15.47
2019-03-24T18:20:33.772Z,13.57
2019-03-24T18:23:10.532Z,15.13
2019-03-24T18:25:41.419Z,15.13
2019-03-24T18:28:12.184Z,13.40
2019-03-24T18:30:43.617Z,14.77
2019-03-24T18:33:14.507Z,17.63
2019-03-24T18:35:45.403Z,16.47
2019-03-24T18:38:16.267Z,18.57
2019-03-24T18:40:47.154Z,18.27
2019-03-24T18:43:17.734Z,16.63
2019-03-24T18:45:49.091Z,18.20
2019-03-24T18:48:21.298Z,17.27
2019-03-24T18:50:53.894Z,16.10
2019-03-24T18:53:24.973Z,16.03
2019-03-24T18:55:55.927Z,18.30
2019-03-24T18:58:27.041Z,13.17
2019-03-24T19:00:58.257Z,13.73
2019-03-24T19:03:29.175Z,12.17
2019-03-24T19:06:00.092Z,15.77
2019-03-24T19:08:31.066Z,12.53
2019-03-24T19:11:02.109Z,14.60
2019-03-24T19:13:32.962Z,18.57
2019-03-24T19:16:03.584Z,15.87
2019-03-24T19:18:34.493Z,13.57
2019-03-24T19:21:05.213Z,18.27
2019-03-24T19:23:41.385Z,15.17
2019-03-24T19:26:12.163Z,19.97
2019-03-24T19:28:42.966Z,17.90
2019-03-24T19:31:14.868Z,15.20
2019-03-24T19:33:45.736Z,16.20
2019-03-24T19:36:16.509Z,14.80
2019-03-24T19:38:47.365Z,17.33
2019-03-24T19:41:18.366Z,17.07
2019-03-24T19:43:49.084Z,15.77
2019-03-24T19:46:19.870Z,19.97
2019-03-24T19:48:50.646Z,15.77
2019-03-24T19:51:21.380Z,15.80
2019-03-24T19:53:52.185Z,24.47
2019-03-24T19:56:22.863Z,21.77
2019-03-24T19:58:53.600Z,23.10
2019-03-24T20:01:24.262Z,16.03
2019-03-24T20:03:55.077Z,20.30
2019-03-24T20:06:25.786Z,15.70
2019-03-24T20:08:56.487Z,12.70
2019-03-24T20:11:27.145Z,12.50
2019-03-24T20:13:57.788Z,18.17
2019-03-24T20:16:28.450Z,11.57
2019-03-24T20:18:59.242Z,16.27
2019-03-24T20:21:29.996Z,12.20
2019-03-24T20:24:00.782Z,12.43
2019-03-24T20:26:31.587Z,13.33
2019-03-24T20:29:02.552Z,11.07
2019-03-24T20:31:34.203Z,9.90
2019-03-24T20:34:04.909Z,11.17
2019-03-24T20:36:35.773Z,12.47
2019-03-24T20:39:09.255Z,11.30
2019-03-24T20:41:39.941Z,11.07
2019-03-24T20:44:11.479Z,12.80
2019-03-24T20:46:42.411Z,12.77
2019-03-24T20:49:13.060Z,12.03
2019-03-24T20:51:43.791Z,12.13
2019-03-24T20:54:14.636Z,10.87
2019-03-24T20:56:45.450Z,12.00
2019-03-24T20:59:16.096Z,10.13
2019-03-24T21:01:46.840Z,9.47
2019-03-24T21:04:20.101Z,10.47
2019-03-24T21:06:49.997Z,12.30
2019-03-24T21:09:20.673Z,12.40
2019-03-24T21:11:51.405Z,14.20
2019-03-24T21:14:22.097Z,12.40
2019-03-24T21:16:52.753Z,10.23
2019-03-24T21:19:23.382Z,10.20
2019-03-24T21:21:54.192Z,11.70
2019-03-24T21:24:24.878Z,12.33
2019-03-24T21:26:55.588Z,12.07
2019-03-24T21:29:26.294Z,9.93
2019-03-24T21:31:56.945Z,11.00
2019-03-24T21:34:28.608Z,13.30
2019-03-24T21:36:59.296Z,12.37
2019-03-24T21:39:30.078Z,12.87
2019-03-24T21:42:00.811Z,13.23
2019-03-24T21:44:31.586Z,12.03
2019-03-24T21:47:02.387Z,10.87
2019-03-24T21:49:33.120Z,13.93
2019-03-24T21:52:03.846Z,12.93
2019-03-24T21:54:34.591Z,9.43
2019-03-24T21:57:05.289Z,13.23
2019-03-24T21:59:36.108Z,11.43
2019-03-24T22:02:07.007Z,11.53
2019-03-24T22:04:37.859Z,11.63
2019-03-24T22:07:08.767Z,13.33
2019-03-24T22:09:39.526Z,13.47
2019-03-24T22:12:10.470Z,11.10
2019-03-24T22:14:41.312Z,10.03
2019-03-24T22:17:12.031Z,15.67
2019-03-24T22:19:42.833Z,13.60
2019-03-24T22:22:13.655Z,11.67
2019-03-24T22:24:44.401Z,11.90
2019-03-24T22:27:15.119Z,14.33
2019-03-24T22:29:45.916Z,11.67
2019-03-24T22:32:16.717Z,12.43
2019-03-24T22:34:47.447Z,18.27
2019-03-24T22:37:18.949Z,10.20
2019-03-24T22:39:49.628Z,11.33
2019-03-24T22:42:20.263Z,11.27
2019-03-24T22:44:50.969Z,10.20
2019-03-24T22:47:21.757Z,8.73
2019-03-24T22:49:52.591Z,10.63
2019-03-24T22:52:23.578Z,9.77
2019-03-24T22:54:54.372Z,10.00
2019-03-24T22:57:25.159Z,8.77
2019-03-24T22:59:55.928Z,9.77
2019-03-24T23:02:26.644Z,9.67
2019-03-24T23:04:57.354Z,9.67
2019-03-24T23:07:28.059Z,10.73
2019-03-24T23:09:58.807Z,11.70
2019-03-24T23:12:29.573Z,11.07
2019-03-24T23:15:00.314Z,10.60
2019-03-24T23:17:31.236Z,12.20
2019-03-24T23:20:01.964Z,10.67
2019-03-24T23:22:32.758Z,9.90
2019-03-24T23:25:03.424Z,11.47
2019-03-24T23:27:34.059Z,10.60
2019-03-24T23:30:05.865Z,11.00
2019-03-24T23:32:36.635Z,13.27
2019-03-24T23:35:08.009Z,12.70
2019-03-24T23:37:38.841Z,12.07
2019-03-24T23:40:10.797Z,11.90
2019-03-24T23:42:41.545Z,10.50
2019-03-24T23:45:12.496Z,15.70
2019-03-24T23:47:43.249Z,12.07
2019-03-24T23:50:14.134Z,16.80
2019-03-24T23:52:44.926Z,15.17
2019-03-24T23:55:15.618Z,10.80
2019-03-24T23:57:46.318Z,13.73
